Time;durP1;ratioP1;P1;durP2;ratioP2;P2;SDS_P1;SDS_P2;PMS_P1;PMS_P2;Temp;Humidity;BMP_temperature;BMP_pressure;BME280_temperature;BME280_humidity;BME280_pressure;Samples;Min_cycle;Max_cycle;Signal;HPM_P1;HPM_P2
2023/05/31 00:00:33;;;;;;;22.20;9.98;;;;;;;9.95;100.00;102586.19;5064235;28;20093;-68
2023/05/31 00:02:59;;;;;;;17.08;9.43;;;;;;;9.92;100.00;102586.28;5065182;28;20056;-69
2023/05/31 00:05:25;;;;;;;24.13;10.40;;;;;;;9.91;100.00;102589.84;5067280;28;20063;-69
2023/05/31 00:07:51;;;;;;;21.25;10.02;;;;;;;9.93;100.00;102589.81;5050853;28;20071;-70
2023/05/31 00:10:21;;;;;;;21.90;10.00;;;;;;;9.91;100.00;102579.19;5063046;28;20040;-69
2023/05/31 00:12:47;;;;;;;20.75;9.65;;;;;;;9.90;100.00;102588.97;5089397;28;20044;-69
2023/05/31 00:15:14;;;;;;;19.60;9.80;;;;;;;9.92;100.00;102582.75;5088462;28;20028;-69
2023/05/31 00:17:40;;;;;;;20.35;10.48;;;;;;;9.91;100.00;102589.84;5088272;28;20511;-69
2023/05/31 00:20:06;;;;;;;24.10;11.38;;;;;;;9.90;100.00;102588.97;5069623;28;20109;-69
2023/05/31 00:22:33;;;;;;;19.02;9.82;;;;;;;9.88;100.00;102584.59;5069212;28;20036;-69
2023/05/31 00:24:59;;;;;;;20.75;10.90;;;;;;;9.89;100.00;102589.88;5086027;28;20028;-70
2023/05/31 00:27:25;;;;;;;21.50;10.65;;;;;;;9.89;100.00;102584.53;5068431;28;20117;-69
2023/05/31 00:29:52;;;;;;;23.15;10.57;;;;;;;9.87;100.00;102585.50;5066949;28;20115;-69
2023/05/31 00:32:18;;;;;;;22.05;10.45;;;;;;;9.85;100.00;102592.66;5087216;28;20044;-70
2023/05/31 00:34:45;;;;;;;25.08;11.25;;;;;;;9.82;100.00;102587.41;5054352;28;20032;-69
2023/05/31 00:37:11;;;;;;;25.13;10.23;;;;;;;9.81;100.00;102586.53;5084994;28;20028;-70
2023/05/31 00:39:37;;;;;;;22.17;10.40;;;;;;;9.80;100.00;102583.91;5085322;28;21286;-69
2023/05/31 00:42:04;;;;;;;26.40;10.65;;;;;;;9.77;100.00;102579.53;5069932;28;20035;-69
2023/05/31 00:44:31;;;;;;;22.98;11.82;;;;;;;9.69;100.00;102585.06;5087261;28;20047;-69
2023/05/31 00:46:57;;;;;;;21.52;11.63;;;;;;;9.66;100.00;102579.78;5071246;28;20043;-69
2023/05/31 00:49:26;;;;;;;30.48;11.90;;;;;;;9.63;100.00;102584.31;5103428;28;20389;-69
2023/05/31 00:51:53;;;;;;;23.60;10.65;;;;;;;9.61;100.00;102580.78;5085667;28;20047;-70
2023/05/31 00:54:20;;;;;;;24.52;11.30;;;;;;;9.57;100.00;102585.31;5069839;28;20049;-68
2023/05/31 00:56:46;;;;;;;26.08;11.07;;;;;;;9.53;100.00;102586.31;5087000;28;20035;-69
2023/05/31 00:59:12;;;;;;;30.17;11.80;;;;;;;9.53;100.00;102590.78;5085496;28;20032;-70
2023/05/31 01:01:39;;;;;;;21.90;10.98;;;;;;;9.49;100.00;102592.63;5070407;28;20035;-69
2023/05/31 01:04:07;;;;;;;21.98;11.05;;;;;;;9.47;100.00;102589.13;5068524;28;20036;-69
2023/05/31 01:06:34;;;;;;;25.80;11.68;;;;;;;9.44;100.00;102591.84;5082258;28;20101;-69
2023/05/31 01:09:05;;;;;;;23.48;11.25;;;;;;;9.42;100.00;102596.34;5086531;28;20028;-69
2023/05/31 01:11:31;;;;;;;;;;;;;;;9.44;100.00;102599.84;5049326;28;20032;-69
2023/05/31 01:14:29;;;;;;;27.25;12.25;;;;;;;9.41;100.00;102605.25;5088163;28;19912;-69
2023/05/31 01:17:22;;;;;;;27.27;12.68;;;;;;;9.37;100.00;102603.56;5051326;28;20032;-69
2023/05/31 01:19:52;;;;;;;30.52;12.60;;;;;;;9.36;100.00;102607.16;5075787;28;20063;-69
2023/05/31 01:22:33;;;;;;;27.58;12.85;;;;;;;9.34;100.00;102598.28;5086070;28;20592;-70
2023/05/31 01:25:07;;;;;;;;;;;;;;;9.36;100.00;102601.81;5089141;28;20051;-70
2023/05/31 01:27:34;;;;;;;28.83;12.85;;;;;;;9.29;100.00;102603.72;5086972;28;20007;-70
2023/05/31 01:30:01;;;;;;;30.50;14.18;;;;;;;9.26;100.00;102596.69;5045645;28;20040;-70
2023/05/31 01:32:28;;;;;;;27.80;12.55;;;;;;;9.22;100.00;102600.31;5067202;28;20540;-70
2023/05/31 01:34:54;;;;;;;30.27;13.65;;;;;;;9.20;100.00;102602.13;5085848;28;20024;-69
2023/05/31 01:37:20;;;;;;;31.27;13.48;;;;;;;9.21;100.00;102600.38;5086459;28;20115;-69
2023/05/31 01:39:48;;;;;;;34.00;13.68;;;;;;;9.18;100.00;102593.28;5085704;28;20058;-68
2023/05/31 01:42:16;;;;;;;39.08;14.48;;;;;;;9.16;100.00;102591.59;5084456;28;20059;-69
2023/05/31 01:44:43;;;;;;;33.05;13.93;;;;;;;9.14;100.00;102596.06;5086358;28;20111;-70
2023/05/31 01:47:09;;;;;;;30.40;13.88;;;;;;;9.08;100.00;102589.09;5067076;28;20524;-69
2023/05/31 01:49:39;;;;;;;32.75;14.10;;;;;;;9.08;100.00;102592.63;5086367;28;20028;-69
2023/05/31 01:52:13;;;;;;;31.25;13.80;;;;;;;9.09;100.00;102593.50;5085366;28;20040;-69
2023/05/31 01:54:40;;;;;;;35.28;14.00;;;;;;;-144.87;100.00;61487.56;5064567;28;20063;-70
2023/05/31 01:57:07;;;;;;;29.75;13.73;;;;;;;-144.87;100.00;61487.56;5067692;28;20020;-70
2023/05/31 01:59:37;;;;;;;29.45;13.45;;;;;;;-144.87;100.00;61487.56;5068082;28;20032;-70
2023/05/31 02:02:05;;;;;;;28.92;14.43;;;;;;;-144.87;100.00;61487.56;5076985;28;20059;-70
2023/05/31 02:04:32;;;;;;;39.08;14.35;;;;;;;-144.87;100.00;61487.56;5079144;28;20185;-69
2023/05/31 02:07:00;;;;;;;33.72;15.00;;;;;;;-144.87;100.00;61487.56;5084813;28;20052;-69
2023/05/31 02:09:27;;;;;;;28.13;13.77;;;;;;;-144.87;100.00;61487.56;5084070;28;20123;-69
2023/05/31 02:11:53;;;;;;;31.95;13.75;;;;;;;-144.87;100.00;61487.56;5082986;28;20074;-69
2023/05/31 02:14:19;;;;;;;34.47;13.95;;;;;;;-144.87;100.00;61487.56;5066510;28;20481;-69
2023/05/31 02:16:46;;;;;;;33.97;13.43;;;;;;;-144.87;100.00;61487.56;5086925;28;20039;-69
2023/05/31 02:19:13;;;;;;;26.95;14.23;;;;;;;-144.87;100.00;61487.56;5068851;28;20471;-70
2023/05/31 02:21:40;;;;;;;37.63;14.80;;;;;;;-144.87;100.00;61487.56;5084147;28;20044;-69
2023/05/31 02:24:08;;;;;;;33.83;13.65;;;;;;;-144.87;100.00;61487.56;5085392;28;20040;-69
2023/05/31 02:26:36;;;;;;;33.50;14.50;;;;;;;-144.87;100.00;61487.56;5082373;28;20155;-69
2023/05/31 02:29:02;;;;;;;31.35;15.05;;;;;;;-144.87;100.00;61487.56;5084711;28;20028;-70
2023/05/31 02:31:28;;;;;;;34.50;15.38;;;;;;;-144.87;100.00;61487.56;5066131;28;20036;-69
2023/05/31 02:33:55;;;;;;;28.05;14.52;;;;;;;-144.87;100.00;61487.56;5084510;28;20070;-69
2023/05/31 02:36:21;;;;;;;32.13;14.90;;;;;;;-144.87;100.00;61487.56;5085405;28;20036;-69
2023/05/31 02:38:47;;;;;;;40.88;15.77;;;;;;;-144.87;100.00;61487.56;5097254;28;20072;-69
2023/05/31 02:41:14;;;;;;;35.08;15.30;;;;;;;-144.87;100.00;61487.56;5084489;28;20032;-69
2023/05/31 02:43:40;;;;;;;32.55;15.82;;;;;;;-144.87;100.00;61487.56;5068914;28;20097;-70
2023/05/31 02:46:07;;;;;;;34.53;16.42;;;;;;;-144.87;100.00;61487.56;5068452;28;20146;-70
2023/05/31 02:48:33;;;;;;;35.67;15.98;;;;;;;-144.87;100.00;61487.56;5064002;28;20028;-69
2023/05/31 02:51:00;;;;;;;37.92;15.82;;;;;;;-144.87;100.00;61487.56;5085985;28;20039;-69
2023/05/31 02:53:45;;;;;;;29.73;14.23;;;;;;;-144.87;100.00;61487.56;5085394;28;20043;-70
2023/05/31 02:56:16;;;;;;;31.20;15.07;;;;;;;-144.87;100.00;61487.56;5063557;28;20024;-70
2023/05/31 02:59:02;;;;;;;32.00;15.10;;;;;;;-144.87;100.00;61487.56;5080534;28;20123;-69
2023/05/31 03:01:42;;;;;;;39.30;16.75;;;;;;;-144.87;100.00;61487.56;5075076;28;20523;-69
2023/05/31 03:04:28;;;;;;;36.92;15.30;;;;;;;-144.87;100.00;61487.56;5081656;28;20401;-69
2023/05/31 03:06:57;;;;;;;32.33;15.98;;;;;;;-144.87;100.00;61487.56;5077596;28;20047;-69
2023/05/31 03:09:25;;;;;;;39.53;16.10;;;;;;;-144.87;100.00;61487.56;5081986;28;20148;-71
2023/05/31 03:11:51;;;;;;;39.72;16.60;;;;;;;-144.87;100.00;61487.56;5062184;28;20065;-69
2023/05/31 03:14:20;;;;;;;34.10;15.45;;;;;;;-144.87;100.00;61487.56;5084701;28;20032;-69
2023/05/31 03:16:48;;;;;;;39.47;16.95;;;;;;;-144.87;100.00;61487.56;5083245;28;20040;-69
2023/05/31 03:19:15;;;;;;;35.00;15.25;;;;;;;-144.87;100.00;61487.56;5081090;28;20032;-69
2023/05/31 03:21:44;;;;;;;41.78;17.50;;;;;;;-144.87;100.00;61487.56;5063699;28;20527;-69
2023/05/31 03:24:10;;;;;;;38.30;16.85;;;;;;;-144.87;100.00;61487.56;5082724;28;20051;-71
2023/05/31 03:26:37;;;;;;;44.40;17.00;;;;;;;-144.87;100.00;61487.56;5084573;28;20044;-68
2023/05/31 03:29:03;;;;;;;41.50;17.85;;;;;;;-144.87;100.00;61487.56;5081238;28;20102;-69
2023/05/31 03:31:29;;;;;;;35.92;16.70;;;;;;;-144.87;100.00;61487.56;5084793;28;20036;-69
2023/05/31 03:33:57;;;;;;;40.78;18.02;;;;;;;-144.87;100.00;61487.56;5066789;28;20032;-70
2023/05/31 03:36:23;;;;;;;42.70;17.35;;;;;;;-144.87;100.00;61487.56;5067567;28;20063;-70
2023/05/31 03:38:50;;;;;;;42.67;18.80;;;;;;;-144.87;100.00;61487.56;5047434;28;20181;-70
2023/05/31 03:41:17;;;;;;;36.60;17.67;;;;;;;-144.87;100.00;61487.56;5066537;28;20072;-70
2023/05/31 03:43:44;;;;;;;40.42;17.38;;;;;;;-144.87;100.00;61487.56;5068861;28;20036;-70
2023/05/31 03:46:11;;;;;;;50.10;17.67;;;;;;;-144.87;100.00;61487.56;5086313;28;20033;-70
2023/05/31 03:48:38;;;;;;;45.60;17.85;;;;;;;-144.87;100.00;61487.56;5085852;28;20054;-69
2023/05/31 03:51:04;;;;;;;36.97;17.35;;;;;;;-144.87;100.00;61487.56;5055329;28;20028;-70
2023/05/31 03:53:30;;;;;;;42.22;16.92;;;;;;;-144.87;100.00;61487.56;5071077;28;20036;-69
2023/05/31 03:55:59;;;;;;;43.30;17.20;;;;;;;-144.87;100.00;61487.56;5066687;28;20032;-69
2023/05/31 03:58:26;;;;;;;48.20;18.05;;;;;;;-144.87;100.00;61487.56;5085021;28;20050;-70
2023/05/31 04:00:52;;;;;;;51.58;19.13;;;;;;;-144.87;100.00;61487.56;5085497;28;20115;-70
2023/05/31 04:03:18;;;;;;;37.45;16.98;;;;;;;-144.87;100.00;61487.56;5083442;28;20508;-70
2023/05/31 04:05:45;;;;;;;39.80;17.98;;;;;;;-144.87;100.00;61487.56;5070857;28;20067;-70
2023/05/31 04:08:11;;;;;;;44.97;17.55;;;;;;;-144.87;100.00;61487.56;5038062;28;20032;-70
2023/05/31 04:10:37;;;;;;;42.00;17.80;;;;;;;-144.87;100.00;61487.56;5064559;28;20040;-70
2023/05/31 04:13:03;;;;;;;51.42;18.45;;;;;;;-144.87;100.00;61487.56;5069641;28;20137;-69
2023/05/31 04:15:30;;;;;;;45.00;18.05;;;;;;;-144.87;100.00;61487.56;5086190;28;20128;-69
2023/05/31 04:18:01;;;;;;;35.00;16.40;;;;;;;-144.87;100.00;61487.56;5063777;28;20488;-68
2023/05/31 04:20:28;;;;;;;45.17;18.30;;;;;;;-144.87;100.00;61487.56;5070873;28;20759;-69
2023/05/31 04:22:54;;;;;;;36.55;17.42;;;;;;;-144.87;100.00;61487.56;5053426;28;20032;-69
2023/05/31 04:25:22;;;;;;;36.97;16.58;;;;;;;-144.87;100.00;61487.56;5070391;28;20465;-70
2023/05/31 04:27:49;;;;;;;34.78;16.45;;;;;;;-144.87;100.00;61487.56;5086181;28;20071;-70
2023/05/31 04:30:15;;;;;;;34.35;15.93;;;;;;;-144.87;100.00;61487.56;5085547;28;20115;-70
2023/05/31 04:32:44;;;;;;;38.00;15.85;;;;;;;-144.87;100.00;61487.56;5053234;28;20028;-69
2023/05/31 04:35:11;;;;;;;28.65;13.90;;;;;;;-144.87;100.00;61487.56;5069603;28;20028;-70
2023/05/31 04:37:41;;;;;;;23.67;13.40;;;;;;;-144.87;100.00;61487.56;5085535;28;20028;-69
2023/05/31 04:40:11;;;;;;;20.23;12.05;;;;;;;-144.87;100.00;61487.56;5070585;28;20040;-70
2023/05/31 04:42:38;;;;;;;17.50;10.40;;;;;;;-144.87;100.00;61487.56;5084688;28;20047;-70
2023/05/31 04:45:12;;;;;;;21.33;10.82;;;;;;;-144.87;100.00;61487.56;5088239;28;20039;-70
2023/05/31 04:47:49;;;;;;;21.48;10.90;;;;;;;-144.87;100.00;61487.56;5070396;28;20814;-69
2023/05/31 04:50:15;;;;;;;25.63;10.32;;;;;;;-144.87;100.00;61487.56;5069750;28;20036;-70
2023/05/31 04:52:43;;;;;;;19.58;9.40;;;;;;;-144.87;100.00;61487.56;5070019;28;20119;-69
2023/05/31 04:55:10;;;;;;;18.60;9.73;;;;;;;-144.87;100.00;61487.56;5069448;28;20017;-70
2023/05/31 04:57:37;;;;;;;15.43;9.23;;;;;;;-144.87;100.00;61487.56;5085223;28;20085;-70
2023/05/31 05:00:08;;;;;;;14.80;9.40;;;;;;;-144.87;100.00;61487.56;5102572;28;20032;-69
2023/05/31 05:02:36;;;;;;;16.10;9.77;;;;;;;-144.87;100.00;61487.56;5086154;28;20085;-70
2023/05/31 05:05:06;;;;;;;18.02;9.65;;;;;;;-144.87;100.00;61487.56;5065714;28;20041;-70
2023/05/31 05:07:33;;;;;;;22.45;9.65;;;;;;;-144.87;100.00;61487.56;5046103;28;20043;-72
2023/05/31 05:10:00;;;;;;;16.98;9.48;;;;;;;-144.87;100.00;61487.56;5079382;28;20421;-73
2023/05/31 05:12:27;;;;;;;20.13;9.32;;;;;;;-144.87;100.00;61487.56;5066856;28;20036;-72
2023/05/31 05:14:54;;;;;;;17.60;10.27;;;;;;;-144.87;100.00;61487.56;5065893;28;20115;-72
2023/05/31 05:17:20;;;;;;;14.40;9.57;;;;;;;-144.87;100.00;61487.56;5052791;28;20051;-73
2023/05/31 05:19:47;;;;;;;19.15;9.40;;;;;;;-144.87;100.00;61487.56;5067513;28;20084;-74
2023/05/31 05:22:14;;;;;;;23.27;11.48;;;;;;;-144.87;100.00;61487.56;5065369;28;20028;-73
2023/05/31 05:24:40;;;;;;;19.85;9.63;;;;;;;-144.87;100.00;61487.56;5081854;28;20097;-73
2023/05/31 05:27:08;;;;;;;17.65;9.38;;;;;;;-144.87;100.00;61487.56;5069499;28;20032;-73
2023/05/31 05:29:34;;;;;;;14.75;8.75;;;;;;;-144.87;100.00;61487.56;5098753;28;20055;-72
2023/05/31 05:32:00;;;;;;;18.48;10.13;;;;;;;-144.87;100.00;61487.56;5099772;28;20496;-72
2023/05/31 05:34:27;;;;;;;21.38;10.10;;;;;;;-144.87;100.00;61487.56;5072419;28;20035;-73
2023/05/31 05:36:53;;;;;;;17.27;9.23;;;;;;;-144.87;100.00;61487.56;5062888;28;20044;-72
2023/05/31 05:39:19;;;;;;;23.00;11.32;;;;;;;-144.87;100.00;61487.56;5064922;28;20506;-73
2023/05/31 05:41:47;;;;;;;21.50;10.20;;;;;;;-144.87;100.00;61487.56;5067010;28;20036;-73
2023/05/31 05:44:13;;;;;;;17.20;9.02;;;;;;;-144.87;100.00;61487.56;5066336;28;20065;-72
2023/05/31 05:46:40;;;;;;;18.48;9.35;;;;;;;-144.87;100.00;61487.56;5081964;28;20044;-72
2023/05/31 05:49:06;;;;;;;17.40;9.80;;;;;;;-144.87;100.00;61487.56;5078258;28;20507;-72
2023/05/31 05:51:32;;;;;;;20.98;10.27;;;;;;;-144.87;100.00;61487.56;5065282;28;20119;-72
2023/05/31 05:54:04;;;;;;;21.05;10.10;;;;;;;-144.87;100.00;61487.56;5065955;28;20036;-73
2023/05/31 05:56:30;;;;;;;20.17;9.52;;;;;;;-144.87;100.00;61487.56;5067539;28;20477;-72
2023/05/31 05:59:00;;;;;;;17.50;10.93;;;;;;;-144.87;100.00;61487.56;5084338;28;20036;-73
2023/05/31 06:01:35;;;;;;;20.25;8.88;;;;;;;-144.87;100.00;61487.56;5086595;28;20048;-72
2023/05/31 06:04:02;;;;;;;17.92;10.25;;;;;;;-144.87;100.00;61487.56;5068331;28;20042;-73
2023/05/31 06:06:28;;;;;;;17.55;9.32;;;;;;;-144.87;100.00;61487.56;5068247;28;20056;-73
2023/05/31 06:08:55;;;;;;;18.05;10.13;;;;;;;-144.87;100.00;61487.56;5084112;28;20054;-74
2023/05/31 06:11:22;;;;;;;20.63;9.63;;;;;;;-144.87;100.00;61487.56;5085194;28;20028;-75
2023/05/31 06:13:49;;;;;;;22.23;10.02;;;;;;;-144.87;100.00;61487.56;5083369;28;20032;-72
2023/05/31 06:16:23;;;;;;;20.83;10.18;;;;;;;-144.87;100.00;61487.56;5050088;28;20390;-73
2023/05/31 06:18:49;;;;;;;21.95;9.77;;;;;;;-144.87;100.00;61487.56;5082794;28;20024;-73
2023/05/31 06:21:17;;;;;;;23.45;10.23;;;;;;;-144.87;100.00;61487.56;5060089;28;20520;-73
2023/05/31 06:23:44;;;;;;;17.35;10.25;;;;;;;-144.87;100.00;61487.56;5085757;28;20111;-73
2023/05/31 06:26:11;;;;;;;18.85;9.90;;;;;;;-144.87;100.00;61487.56;5083527;28;20574;-73
2023/05/31 06:28:37;;;;;;;17.83;9.65;;;;;;;-144.87;100.00;61487.56;5048511;28;20459;-73
2023/05/31 06:31:08;;;;;;;26.42;9.82;;;;;;;-144.87;100.00;61487.56;5079799;28;20469;-71
2023/05/31 06:33:35;;;;;;;15.82;9.23;;;;;;;-144.87;100.00;61487.56;5087443;28;20031;-73
2023/05/31 06:36:02;;;;;;;16.83;8.98;;;;;;;-144.87;100.00;61487.56;5066616;28;20032;-73
2023/05/31 06:38:29;;;;;;;19.73;9.80;;;;;;;-144.87;100.00;61487.56;5071544;28;20338;-72
2023/05/31 06:40:56;;;;;;;19.40;9.40;;;;;;;-144.87;100.00;61487.56;5080885;28;20044;-72
2023/05/31 06:43:22;;;;;;;13.35;8.65;;;;;;;-144.87;100.00;61487.56;5067247;28;20420;-74
2023/05/31 06:46:10;;;;;;;20.70;9.75;;;;;;;-144.87;100.00;61487.56;5082745;28;20113;-73
2023/05/31 06:48:55;;;;;;;15.65;9.40;;;;;;;-144.87;100.00;61487.56;5079138;28;20511;-74
2023/05/31 06:51:44;;;;;;;19.27;9.77;;;;;;;-144.87;100.00;61487.56;5081107;28;20039;-72
2023/05/31 06:54:28;;;;;;;20.60;10.18;;;;;;;-144.87;100.00;61487.56;5081310;28;20047;-71
2023/05/31 06:56:56;;;;;;;17.35;9.00;;;;;;;-144.87;100.00;61487.56;5065635;28;20019;-73
2023/05/31 06:59:22;;;;;;;23.02;9.55;;;;;;;-144.87;100.00;61487.56;5055376;28;20037;-73
2023/05/31 07:01:52;;;;;;;15.15;8.82;;;;;;;-144.87;100.00;61487.56;5080710;28;20032;-72
2023/05/31 07:04:18;;;;;;;15.65;8.85;;;;;;;-144.87;100.00;61487.56;5087422;28;20442;-72
2023/05/31 07:06:45;;;;;;;17.27;8.75;;;;;;;-144.87;100.00;61487.56;5052633;28;20105;-73
2023/05/31 07:09:11;;;;;;;17.77;9.98;;;;;;;-144.87;100.00;61487.56;5077677;28;20465;-73
2023/05/31 07:11:58;;;;;;;16.85;9.15;;;;;;;-144.87;100.00;61487.56;5072376;28;20055;-72
2023/05/31 07:14:29;;;;;;;17.27;9.38;;;;;;;-144.87;100.00;61487.56;5054584;28;20545;-72
2023/05/31 07:16:56;;;;;;;15.10;8.57;;;;;;;-144.87;100.00;61487.56;5078240;28;20122;-73
2023/05/31 07:19:22;;;;;;;19.67;9.27;;;;;;;-144.87;100.00;61487.56;5067636;28;20033;-73
2023/05/31 07:21:49;;;;;;;16.23;8.55;;;;;;;-144.87;100.00;61487.56;5055474;28;20135;-73
2023/05/31 07:24:15;;;;;;;15.88;9.07;;;;;;;-144.87;100.00;61487.56;5085392;28;20058;-73
2023/05/31 07:26:41;;;;;;;16.35;8.85;;;;;;;-144.87;100.00;61487.56;5086313;28;20028;-73
2023/05/31 07:29:08;;;;;;;17.70;9.52;;;;;;;-144.87;100.00;61487.56;5073350;28;20123;-73
2023/05/31 07:31:34;;;;;;;17.38;8.88;;;;;;;-144.87;100.00;61487.56;5087292;28;20036;-73
2023/05/31 07:34:00;;;;;;;23.50;9.00;;;;;;;-144.87;100.00;61487.56;5072456;28;20041;-73
2023/05/31 07:36:27;;;;;;;18.95;8.30;;;;;;;-144.87;100.00;61487.56;5081097;28;20044;-72
2023/05/31 07:38:53;;;;;;;20.75;9.20;;;;;;;-144.87;100.00;61487.56;5087762;28;20027;-72
2023/05/31 07:41:20;;;;;;;14.57;8.18;;;;;;;-144.87;100.00;61487.56;5084807;28;20039;-71
2023/05/31 07:43:46;;;;;;;16.58;7.97;;;;;;;-144.87;100.00;61487.56;5072382;28;20056;-71
2023/05/31 07:46:14;;;;;;;20.65;8.23;;;;;;;-144.87;100.00;61487.56;5085038;28;20093;-71
2023/05/31 07:48:40;;;;;;;15.90;8.18;;;;;;;-144.87;100.00;61487.56;5091054;28;20039;-72
2023/05/31 07:51:06;;;;;;;15.10;8.10;;;;;;;-144.87;100.00;61487.56;5091015;28;20038;-72
2023/05/31 07:53:34;;;;;;;14.38;8.55;;;;;;;-144.87;100.00;61487.56;5061624;28;20039;-71
2023/05/31 07:56:00;;;;;;;20.38;9.00;;;;;;;-144.87;100.00;61487.56;5062064;28;20048;-72
2023/05/31 07:58:26;;;;;;;15.05;8.10;;;;;;;-144.87;100.00;61487.56;5092159;28;20391;-72
2023/05/31 08:00:53;;;;;;;21.80;9.20;;;;;;;-144.87;100.00;61487.56;5082201;28;20064;-71
2023/05/31 08:03:20;;;;;;;18.15;7.55;;;;;;;-144.87;100.00;61487.56;5056422;28;20040;-73
2023/05/31 08:05:48;;;;;;;14.73;8.63;;;;;;;-144.87;100.00;61487.56;5071867;28;20140;-73
2023/05/31 08:08:15;;;;;;;17.75;8.93;;;;;;;-144.87;100.00;61487.56;5081222;28;20063;-73
2023/05/31 08:10:42;;;;;;;20.10;8.93;;;;;;;-144.87;100.00;61487.56;5092721;28;20074;-73
2023/05/31 08:13:08;;;;;;;12.90;7.22;;;;;;;-144.87;100.00;61487.56;5089566;28;20093;-72
2023/05/31 08:15:34;;;;;;;13.95;7.57;;;;;;;-144.87;100.00;61487.56;5077704;28;20040;-71
2023/05/31 08:18:01;;;;;;;18.60;8.02;;;;;;;-144.87;100.00;61487.56;5078837;28;20048;-72
2023/05/31 08:20:27;;;;;;;23.63;8.60;;;;;;;-144.87;100.00;61487.56;5093457;28;20058;-73
2023/05/31 08:22:54;;;;;;;15.05;8.15;;;;;;;-144.87;100.00;61487.56;5091249;28;20040;-73
2023/05/31 08:25:22;;;;;;;14.50;7.47;;;;;;;-144.87;100.00;61487.56;5091661;28;20115;-73
2023/05/31 08:27:48;;;;;;;17.58;8.50;;;;;;;-144.87;100.00;61487.56;5090270;28;20040;-74
2023/05/31 08:30:15;;;;;;;13.88;7.60;;;;;;;-144.87;100.00;61487.56;5073511;28;20048;-73
2023/05/31 08:32:41;;;;;;;15.23;7.45;;;;;;;-144.87;100.00;61487.56;5090409;28;20559;-72
2023/05/31 08:35:11;;;;;;;15.60;7.30;;;;;;;-144.87;100.00;61487.56;5092241;28;20032;-73
2023/05/31 08:37:38;;;;;;;16.75;8.15;;;;;;;-144.87;100.00;61487.56;5088697;28;20101;-72
2023/05/31 08:40:05;;;;;;;13.57;7.43;;;;;;;-144.87;100.00;61487.56;5087804;28;20473;-72
2023/05/31 08:42:59;;;;;;;13.40;6.75;;;;;;;-144.87;100.00;61487.56;5067189;28;20124;-73
2023/05/31 08:45:29;;;;;;;15.90;7.32;;;;;;;-144.87;100.00;61487.56;5072558;28;20271;-73
2023/05/31 08:48:13;;;;;;;17.48;7.60;;;;;;;-144.87;100.00;61487.56;5057448;28;20020;-73
2023/05/31 08:50:42;;;;;;;18.23;7.05;;;;;;;-144.87;100.00;61487.56;5072241;28;20033;-73
2023/05/31 08:53:08;;;;;;;17.25;7.10;;;;;;;-144.87;100.00;61487.56;5074708;28;20083;-73
2023/05/31 08:55:38;;;;;;;15.40;7.80;;;;;;;-144.87;100.00;61487.56;5071399;28;20182;-72
2023/05/31 08:58:05;;;;;;;16.10;7.93;;;;;;;-144.87;100.00;61487.56;5079805;28;20045;-73
2023/05/31 09:00:32;;;;;;;16.60;7.32;;;;;;;-144.87;100.00;61487.56;5074207;28;20031;-73
2023/05/31 09:03:00;;;;;;;15.65;6.93;;;;;;;-144.87;100.00;61487.56;5090573;28;20040;-72
2023/05/31 09:05:26;;;;;;;15.43;7.30;;;;;;;-144.87;100.00;61487.56;5089795;28;20056;-72
2023/05/31 09:07:54;;;;;;;18.23;7.25;;;;;;;-144.87;100.00;61487.56;5079767;28;20036;-73
2023/05/31 09:10:20;;;;;;;16.45;6.53;;;;;;;-144.87;100.00;61487.56;5078642;28;20107;-72
2023/05/31 09:12:46;;;;;;;14.60;7.40;;;;;;;-144.87;100.00;61487.56;5090788;28;20089;-73
2023/05/31 09:15:14;;;;;;;11.82;5.93;;;;;;;-144.87;100.00;61487.56;5076167;28;20110;-72
2023/05/31 09:17:44;;;;;;;11.63;5.55;;;;;;;-144.87;100.00;61487.56;5070423;28;20047;-73
2023/05/31 09:20:11;;;;;;;15.65;6.55;;;;;;;-144.87;100.00;61487.56;5090197;28;20043;-73
2023/05/31 09:22:38;;;;;;;13.68;6.72;;;;;;;-144.87;100.00;61487.56;5073339;28;20039;-72
2023/05/31 09:25:04;;;;;;;16.88;6.80;;;;;;;-144.87;100.00;61487.56;5089656;28;20024;-72
2023/05/31 09:27:38;;;;;;;11.32;6.00;;;;;;;-144.87;100.00;61487.56;5065167;28;20036;-73
2023/05/31 09:30:09;;;;;;;19.55;6.55;;;;;;;-144.87;100.00;61487.56;5082756;28;20040;-73
2023/05/31 09:32:36;;;;;;;20.77;7.68;;;;;;;-144.87;100.00;61487.56;5072189;28;20041;-72
2023/05/31 09:35:16;;;;;;;12.77;6.25;;;;;;;-144.87;100.00;61487.56;5083613;28;20032;-73
